Time;durP1;ratioP1;P1;durP2;ratioP2;P2;SDS_P1;SDS_P2;PMS_P1;PMS_P2;Temp;Humidity;BMP_temperature;BMP_pressure;BME280_temperature;BME280_humidity;BME280_pressure;Samples;Min_cycle;Max_cycle;Signal;HPM_P1;HPM_P2
2023/08/28 00:00:26;;;;;;;1.30;1.20;;;23.90;44.90;;;;;;5019065;28;21115;-67
2023/08/28 00:02:52;;;;;;;1.37;1.27;;;23.90;44.90;;;;;;5018678;28;20463;-69
2023/08/28 00:05:18;;;;;;;1.40;1.30;;;23.90;45.00;;;;;;5022799;28;20474;-67
2023/08/28 00:07:44;;;;;;;1.23;1.13;;;23.90;44.90;;;;;;5019280;28;21415;-67
2023/08/28 00:10:09;;;;;;;1.37;1.27;;;23.90;44.90;;;;;;5021840;28;20223;-68
2023/08/28 00:12:40;;;;;;;1.30;1.20;;;23.90;44.90;;;;;;5021063;28;20304;-67
2023/08/28 00:15:09;;;;;;;1.20;1.10;;;23.90;45.00;;;;;;5017590;28;20743;-67
2023/08/28 00:17:36;;;;;;;1.30;1.20;;;23.90;44.90;;;;;;5018284;28;20455;-67
2023/08/28 00:20:03;;;;;;;1.73;1.10;;;23.90;44.80;;;;;;5018612;28;20436;-69
2023/08/28 00:22:28;;;;;;;1.67;1.57;;;23.90;44.80;;;;;;5020987;28;20958;-70
2023/08/28 00:24:54;;;;;;;1.30;1.20;;;23.90;44.80;;;;;;5021383;28;20493;-67
2023/08/28 00:27:20;;;;;;;1.60;1.50;;;23.90;44.90;;;;;;5018587;28;20313;-69
2023/08/28 00:29:45;;;;;;;1.30;1.20;;;23.90;44.80;;;;;;5019802;28;20232;-68
2023/08/28 00:32:11;;;;;;;1.17;1.10;;;23.90;44.80;;;;;;5018775;28;20675;-69
2023/08/28 00:34:36;;;;;;;1.40;1.30;;;23.90;44.80;;;;;;5018027;28;20296;-70
2023/08/28 00:37:03;;;;;;;1.30;1.20;;;23.90;44.80;;;;;;5016165;28;20250;-67
2023/08/28 00:39:28;;;;;;;1.47;1.37;;;23.90;44.80;;;;;;5016927;28;20749;-67
2023/08/28 00:41:54;;;;;;;1.30;1.20;;;23.90;44.80;;;;;;5018654;28;20451;-67
2023/08/28 00:44:20;;;;;;;1.40;1.30;;;23.90;44.80;;;;;;5020814;28;20225;-68
2023/08/28 00:46:45;;;;;;;1.33;1.23;;;23.90;44.80;;;;;;5019059;28;20663;-67
2023/08/28 00:49:12;;;;;;;1.40;1.30;;;23.90;44.80;;;;;;5017629;28;20465;-68
2023/08/28 00:51:38;;;;;;;1.20;1.20;;;23.90;44.80;;;;;;5018335;28;20239;-70
2023/08/28 00:54:04;;;;;;;1.33;1.23;;;23.90;45.00;;;;;;5018359;28;20958;-67
2023/08/28 00:56:29;;;;;;;1.40;1.30;;;23.90;44.90;;;;;;5014908;28;20480;-70
2023/08/28 00:58:56;;;;;;;1.23;1.13;;;23.80;49.30;;;;;;5020095;28;20713;-67
2023/08/28 01:01:21;;;;;;;1.40;1.30;;;23.90;56.50;;;;;;5019338;28;20309;-67
2023/08/28 01:03:47;;;;;;;1.30;1.20;;;23.90;50.00;;;;;;5020110;28;20474;-69
2023/08/28 01:06:28;;;;;;;1.50;1.40;;;23.80;49.90;;;;;;5022193;28;20275;-67
2023/08/28 01:09:25;;;;;;;1.33;1.23;;;23.90;49.00;;;;;;5018285;28;20230;-67
2023/08/28 01:12:00;;;;;;;1.40;1.30;;;23.80;49.20;;;;;;5004467;28;20463;-68
2023/08/28 01:14:27;;;;;;;1.27;1.20;;;23.80;47.90;;;;;;5022355;28;20464;-67
2023/08/28 01:17:00;;;;;;;1.47;1.37;;;23.80;49.30;;;;;;5018895;28;20530;-68
2023/08/28 01:19:42;;;;;;;1.33;1.23;;;23.80;52.20;;;;;;5020200;28;20489;-68
2023/08/28 01:22:16;;;;;;;1.33;1.23;;;23.80;44.80;;;;;;5020029;28;21089;-67
2023/08/28 01:24:48;;;;;;;1.33;1.23;;;23.80;44.70;;;;;;5021067;28;20463;-67
2023/08/28 01:27:14;;;;;;;1.40;1.30;;;23.80;44.80;;;;;;5020036;28;20549;-67
2023/08/28 01:29:40;;;;;;;1.40;1.27;;;23.80;44.70;;;;;;5022357;28;20460;-68
2023/08/28 01:32:05;;;;;;;1.40;1.30;;;23.80;44.70;;;;;;5020557;28;20557;-67
2023/08/28 01:34:31;;;;;;;1.23;1.13;;;23.80;44.70;;;;;;5018486;28;24458;-67
2023/08/28 01:37:02;;;;;;;1.40;1.30;;;23.80;44.70;;;;;;5021178;28;20725;-67
2023/08/28 01:39:38;;;;;;;1.40;1.30;;;23.80;44.70;;;;;;5019614;28;20308;-67
2023/08/28 01:42:06;;;;;;;1.40;1.30;;;23.80;44.70;;;;;;5020504;28;20452;-67
2023/08/28 01:44:33;;;;;;;1.50;1.40;;;23.80;44.60;;;;;;5019786;28;21475;-67
2023/08/28 01:46:59;;;;;;;1.40;1.30;;;23.80;44.60;;;;;;5020127;28;20463;-69
2023/08/28 01:49:29;;;;;;;1.27;1.17;;;23.80;44.60;;;;;;5022212;28;20458;-68
2023/08/28 01:51:55;;;;;;;1.43;1.33;;;23.80;44.60;;;;;;5022885;28;20238;-67
2023/08/28 01:54:21;;;;;;;1.87;1.40;;;23.80;44.60;;;;;;5026747;28;20822;-68
2023/08/28 01:56:47;;;;;;;1.23;1.13;;;23.80;44.50;;;;;;5021524;28;20290;-67
2023/08/28 01:59:13;;;;;;;1.43;1.33;;;23.80;44.60;;;;;;5019306;28;20234;-69
2023/08/28 02:01:38;;;;;;;1.50;1.40;;;23.80;44.60;;;;;;5017620;28;20229;-69
2023/08/28 02:04:04;;;;;;;1.67;1.30;;;23.80;44.50;;;;;;5021691;28;20214;-68
2023/08/28 02:06:30;;;;;;;1.30;1.20;;;23.80;44.50;;;;;;5020848;28;20236;-70
2023/08/28 02:08:55;;;;;;;1.53;1.30;;;23.80;44.60;;;;;;5022290;28;20329;-67
2023/08/28 02:11:21;;;;;;;1.47;1.30;;;23.80;44.60;;;;;;5018811;28;20711;-67
2023/08/28 02:13:46;;;;;;;1.50;1.40;;;23.80;46.80;;;;;;5018274;28;20223;-70
2023/08/28 02:16:12;;;;;;;1.37;1.27;;;23.80;47.40;;;;;;5018998;28;20227;-68
2023/08/28 02:18:38;;;;;;;1.40;1.30;;;23.80;48.70;;;;;;5023700;28;20868;-67
2023/08/28 02:21:03;;;;;;;1.43;1.33;;;23.80;48.00;;;;;;5018618;28;20222;-68
2023/08/28 02:23:29;;;;;;;1.50;1.40;;;23.80;48.20;;;;;;5020737;28;21181;-67
2023/08/28 02:25:55;;;;;;;1.40;1.30;;;23.80;52.10;;;;;;5021045;28;20265;-69
2023/08/28 02:28:21;;;;;;;1.80;1.70;;;23.80;45.20;;;;;;5020648;28;20219;-68
2023/08/28 02:30:46;;;;;;;1.60;1.50;;;23.80;46.10;;;;;;5015977;28;20226;-69
2023/08/28 02:33:13;;;;;;;1.60;1.50;;;23.70;46.10;;;;;;5019602;28;20635;-68
2023/08/28 02:35:39;;;;;;;1.60;1.40;;;23.70;47.30;;;;;;5018955;28;20249;-70
2023/08/28 02:38:08;;;;;;;1.47;1.37;;;23.80;49.30;;;;;;5022662;28;20459;-68
2023/08/28 02:40:35;;;;;;;1.43;1.33;;;23.80;49.80;;;;;;5019085;28;20258;-67
2023/08/28 02:43:05;;;;;;;1.37;1.27;;;23.80;47.20;;;;;;5017729;28;20476;-69
2023/08/28 02:45:33;;;;;;;1.40;1.30;;;23.80;44.90;;;;;;5018644;28;20520;-67
2023/08/28 02:47:59;;;;;;;1.40;1.30;;;23.80;44.30;;;;;;5019319;28;20484;-70
2023/08/28 02:50:24;;;;;;;1.40;1.30;;;23.80;44.60;;;;;;5019360;28;20476;-67
2023/08/28 02:52:50;;;;;;;1.40;1.30;;;23.80;44.90;;;;;;5018299;28;20211;-68
2023/08/28 02:55:15;;;;;;;2.07;1.30;;;23.80;46.10;;;;;;5017680;28;20245;-69
2023/08/28 02:57:41;;;;;;;1.47;1.37;;;23.80;48.00;;;;;;5019529;28;20238;-67
2023/08/28 03:00:07;;;;;;;1.20;1.10;;;23.80;46.70;;;;;;5017984;28;20218;-68
2023/08/28 03:02:32;;;;;;;1.40;1.30;;;23.70;48.00;;;;;;5016732;28;20231;-69
2023/08/28 03:04:58;;;;;;;1.40;1.30;;;23.80;58.40;;;;;;5021383;28;20878;-67
2023/08/28 03:07:23;;;;;;;1.53;1.43;;;23.70;45.80;;;;;;5016334;28;20681;-67
2023/08/28 03:09:49;;;;;;;1.30;1.20;;;23.80;46.70;;;;;;5016083;28;20301;-67
2023/08/28 03:12:15;;;;;;;1.30;1.20;;;23.70;46.00;;;;;;5020206;28;20231;-70
2023/08/28 03:14:40;;;;;;;1.50;1.40;;;23.70;45.20;;;;;;5021180;28;20218;-67
2023/08/28 03:17:06;;;;;;;1.40;1.30;;;23.80;47.70;;;;;;5017809;28;20238;-68
2023/08/28 03:19:31;;;;;;;1.30;1.10;;;23.70;45.30;;;;;;5018230;28;20226;-70
2023/08/28 03:21:57;;;;;;;1.50;1.40;;;23.80;49.60;;;;;;5017969;28;20226;-67
2023/08/28 03:24:22;;;;;;;1.47;1.37;;;23.70;61.10;;;;;;5018673;28;21228;-68
2023/08/28 03:26:48;;;;;;;1.30;1.20;;;23.80;57.70;;;;;;5016865;28;20649;-68
2023/08/28 03:29:13;;;;;;;1.50;1.40;;;23.80;49.20;;;;;;5021940;28;20229;-68
2023/08/28 03:31:39;;;;;;;1.57;1.47;;;23.80;50.70;;;;;;5021184;28;20226;-69
2023/08/28 03:34:04;;;;;;;1.40;1.30;;;23.80;54.30;;;;;;5017217;28;20254;-67
2023/08/28 03:36:30;;;;;;;1.40;1.30;;;23.70;43.80;;;;;;5019274;28;20233;-68
2023/08/28 03:38:56;;;;;;;1.30;1.20;;;23.80;43.90;;;;;;5021149;28;20223;-69
2023/08/28 03:41:21;;;;;;;1.43;1.30;;;23.70;43.80;;;;;;5016106;28;20222;-67
2023/08/28 03:43:47;;;;;;;1.30;1.20;;;23.70;43.70;;;;;;5017095;28;20309;-70
2023/08/28 03:46:12;;;;;;;1.40;1.30;;;23.80;43.80;;;;;;5018344;28;20230;-68
2023/08/28 03:48:38;;;;;;;1.30;1.20;;;23.80;43.80;;;;;;5019151;28;20238;-68
2023/08/28 03:51:03;;;;;;;1.40;1.30;;;23.70;43.70;;;;;;5022941;28;20760;-70
2023/08/28 03:53:29;;;;;;;1.50;1.40;;;23.70;43.70;;;;;;5021365;28;20632;-68
2023/08/28 03:55:55;;;;;;;1.40;1.30;;;23.70;43.70;;;;;;5014844;28;20245;-70
2023/08/28 03:58:22;;;;;;;1.30;1.20;;;23.70;43.70;;;;;;5016956;28;20229;-69
2023/08/28 04:00:50;;;;;;;1.40;1.30;;;23.80;43.80;;;;;;5010589;28;20222;-69
2023/08/28 04:03:16;;;;;;;1.53;1.43;;;23.70;43.60;;;;;;5014282;28;20460;-72
2023/08/28 04:05:42;;;;;;;2.67;1.50;;;23.70;43.60;;;;;;5014729;28;20467;-71
2023/08/28 04:08:08;;;;;;;1.50;1.40;;;23.70;43.60;;;;;;5014670;28;20229;-70
2023/08/28 04:10:33;;;;;;;1.50;1.20;;;23.70;43.60;;;;;;5018111;28;20455;-69
2023/08/28 04:12:59;;;;;;;1.47;1.37;;;23.80;43.80;;;;;;5013941;28;20241;-71
2023/08/28 04:15:24;;;;;;;1.50;1.40;;;23.80;43.70;;;;;;5005757;28;20414;-71
2023/08/28 04:17:50;;;;;;;2.80;1.30;;;23.80;43.60;;;;;;5015584;28;20234;-69
2023/08/28 04:20:16;;;;;;;1.30;1.20;;;23.80;43.50;;;;;;5008347;28;20835;-79
2023/08/28 04:22:46;;;;;;;1.30;1.20;;;23.80;43.40;;;;;;5013596;28;20240;-75
2023/08/28 04:25:13;;;;;;;1.57;1.40;;;23.80;43.30;;;;;;5009670;28;20233;-72
2023/08/28 04:27:39;;;;;;;5.60;1.37;;;23.80;43.30;;;;;;5014915;28;20452;-74
2023/08/28 04:30:08;;;;;;;1.53;1.43;;;23.80;43.20;;;;;;5014456;28;20502;-74
2023/08/28 04:32:34;;;;;;;1.30;1.20;;;23.80;44.00;;;;;;5014656;28;21431;-73
2023/08/28 04:35:00;;;;;;;3.57;1.10;;;23.80;43.10;;;;;;5017675;28;20475;-73
2023/08/28 04:37:26;;;;;;;2.80;2.37;;;23.80;43.10;;;;;;5012730;28;20238;-73
2023/08/28 04:39:52;;;;;;;1.93;1.10;;;23.80;43.20;;;;;;5016915;28;20236;-72
2023/08/28 04:42:18;;;;;;;1.30;1.20;;;23.80;43.10;;;;;;5010575;28;20460;-72
2023/08/28 04:44:43;;;;;;;1.30;1.20;;;23.80;43.00;;;;;;5015746;28;20623;-72
2023/08/28 04:47:09;;;;;;;1.60;1.50;;;23.80;43.00;;;;;;5012837;28;20233;-72
2023/08/28 04:49:34;;;;;;;1.40;1.30;;;23.80;43.00;;;;;;5015141;28;20283;-72
2023/08/28 04:52:00;;;;;;;1.27;1.17;;;23.80;43.00;;;;;;4991173;28;20793;-71
2023/08/28 04:54:25;;;;;;;1.40;1.30;;;23.80;43.00;;;;;;5018726;28;20311;-72
2023/08/28 04:56:51;;;;;;;1.30;1.20;;;23.80;43.00;;;;;;5013919;28;20231;-74
2023/08/28 04:59:17;;;;;;;1.30;1.20;;;23.80;43.00;;;;;;5011523;28;20237;-75
2023/08/28 05:01:42;;;;;;;1.73;1.63;;;23.80;43.00;;;;;;5015647;28;20232;-75
2023/08/28 05:04:08;;;;;;;1.33;1.23;;;23.80;42.90;;;;;;5017468;28;20232;-73
2023/08/28 05:06:33;;;;;;;1.37;1.27;;;23.80;43.00;;;;;;5011850;28;20226;-73
2023/08/28 05:08:59;;;;;;;1.40;1.30;;;23.80;42.90;;;;;;5013446;28;20681;-73
2023/08/28 05:11:25;;;;;;;1.20;1.10;;;23.80;43.00;;;;;;5013912;28;20729;-72
2023/08/28 05:13:52;;;;;;;1.33;1.23;;;23.80;42.90;;;;;;5012468;28;20309;-76
2023/08/28 05:16:18;;;;;;;1.30;1.20;;;23.80;43.00;;;;;;5012481;28;20234;-75
2023/08/28 05:18:43;;;;;;;1.20;1.10;;;23.80;43.00;;;;;;5013403;28;20465;-78
2023/08/28 05:21:09;;;;;;;1.37;1.27;;;23.80;42.90;;;;;;5010756;28;20219;-68
2023/08/28 05:23:34;;;;;;;1.30;1.20;;;23.80;42.90;;;;;;5010560;28;20310;-70
2023/08/28 05:26:00;;;;;;;1.80;1.23;;;23.80;42.90;;;;;;5013776;28;20934;-67
2023/08/28 05:28:25;;;;;;;1.40;1.30;;;23.80;42.80;;;;;;5018518;28;20304;-69
2023/08/28 05:30:51;;;;;;;1.40;1.30;;;23.80;42.80;;;;;;5015204;28;20674;-66
2023/08/28 05:33:17;;;;;;;1.37;1.27;;;23.80;42.80;;;;;;5021445;28;20233;-69
2023/08/28 05:35:43;;;;;;;1.73;1.50;;;23.80;42.80;;;;;;5015663;28;20240;-68
2023/08/28 05:38:10;;;;;;;1.30;1.20;;;23.80;42.80;;;;;;5016700;28;20491;-68
2023/08/28 05:40:37;;;;;;;1.47;1.37;;;23.80;42.80;;;;;;5022238;28;20223;-67
2023/08/28 05:43:03;;;;;;;1.23;1.13;;;23.80;42.80;;;;;;5020685;28;21065;-68
2023/08/28 05:45:28;;;;;;;1.40;1.30;;;23.80;42.80;;;;;;5019860;28;20574;-66
2023/08/28 05:47:54;;;;;;;1.30;1.20;;;23.80;42.60;;;;;;5021085;28;20478;-70
2023/08/28 05:50:19;;;;;;;1.40;1.20;;;23.80;42.60;;;;;;5020069;28;20709;-67
2023/08/28 05:52:45;;;;;;;1.63;1.43;;;23.80;42.60;;;;;;5021470;28;20305;-69
2023/08/28 05:55:11;;;;;;;1.23;1.13;;;23.80;42.60;;;;;;5023524;28;20376;-69
2023/08/28 05:57:36;;;;;;;1.57;1.47;;;23.80;42.60;;;;;;5022937;28;20686;-66
2023/08/28 06:00:03;;;;;;;1.33;1.23;;;23.80;42.60;;;;;;5019997;28;20889;-70
2023/08/28 06:02:29;;;;;;;1.50;1.40;;;23.80;42.60;;;;;;5019380;28;20233;-66
2023/08/28 06:04:54;;;;;;;1.30;1.20;;;23.80;42.60;;;;;;5013265;28;20456;-67
2023/08/28 06:07:20;;;;;;;1.30;1.20;;;23.80;42.60;;;;;;5021861;28;20226;-69
2023/08/28 06:09:45;;;;;;;1.37;1.20;;;23.80;42.60;;;;;;5023970;28;20547;-67
2023/08/28 06:12:11;;;;;;;1.30;1.20;;;23.80;42.60;;;;;;5019166;28;20225;-69
2023/08/28 06:14:36;;;;;;;1.40;1.30;;;23.80;42.60;;;;;;5019376;28;20667;-67
2023/08/28 06:17:03;;;;;;;2.50;1.40;;;23.80;42.60;;;;;;5022580;28;20685;-66
2023/08/28 06:19:29;;;;;;;1.30;1.20;;;23.80;42.60;;;;;;5018232;28;20222;-66
2023/08/28 06:21:55;;;;;;;1.57;1.07;;;23.80;42.60;;;;;;5019704;28;20467;-66
2023/08/28 06:24:20;;;;;;;1.30;1.20;;;23.80;42.60;;;;;;5025609;28;20535;-67
2023/08/28 06:26:46;;;;;;;1.27;1.17;;;23.80;42.60;;;;;;5019581;28;20268;-66
2023/08/28 06:29:12;;;;;;;1.30;1.20;;;23.80;42.60;;;;;;5020676;28;20218;-69
2023/08/28 06:31:37;;;;;;;1.40;1.30;;;23.80;42.60;;;;;;5019072;28;20223;-67
2023/08/28 06:34:03;;;;;;;1.50;1.40;;;23.80;42.90;;;;;;5018477;28;20334;-68
2023/08/28 06:36:28;;;;;;;4.20;1.50;;;23.80;42.60;;;;;;5019967;28;20234;-66
2023/08/28 06:38:54;;;;;;;1.60;1.50;;;23.80;42.60;;;;;;5017392;28;20693;-67
2023/08/28 06:41:19;;;;;;;1.33;1.23;;;23.80;42.60;;;;;;5018925;28;21174;-67
2023/08/28 06:43:48;;;;;;;1.20;1.10;;;23.80;42.60;;;;;;5020662;28;20222;-69
2023/08/28 06:46:13;;;;;;;1.20;1.20;;;23.70;42.50;;;;;;5018995;28;20225;-69
2023/08/28 06:48:39;;;;;;;1.40;1.30;;;23.80;43.30;;;;;;5019025;28;20463;-67
2023/08/28 06:51:05;;;;;;;1.30;1.20;;;23.80;42.60;;;;;;5018069;28;20675;-70
2023/08/28 06:53:30;;;;;;;1.30;1.20;;;23.80;42.60;;;;;;5018627;28;21142;-70
2023/08/28 06:55:56;;;;;;;1.20;1.10;;;23.80;42.60;;;;;;5020412;28;20247;-65
2023/08/28 06:58:22;;;;;;;2.17;1.30;;;23.80;42.60;;;;;;5019218;28;20234;-68
2023/08/28 07:00:47;;;;;;;1.50;1.40;;;23.80;42.60;;;;;;5018996;28;20473;-66
2023/08/28 07:03:13;;;;;;;1.30;1.20;;;23.80;42.60;;;;;;5020935;28;20241;-70
2023/08/28 07:05:40;;;;;;;1.40;1.30;;;23.80;42.60;;;;;;5023867;28;20323;-68
2023/08/28 07:08:05;;;;;;;1.40;1.30;;;23.80;42.60;;;;;;5019006;28;20238;-68
2023/08/28 07:10:31;;;;;;;1.50;1.40;;;23.80;42.60;;;;;;5019540;28;20525;-66
2023/08/28 07:12:57;;;;;;;1.50;1.40;;;23.80;42.60;;;;;;5021890;28;20249;-68
2023/08/28 07:15:26;;;;;;;1.50;1.40;;;23.80;42.60;;;;;;5018226;28;20237;-69
2023/08/28 07:17:52;;;;;;;1.30;1.20;;;23.80;42.60;;;;;;5018026;28;22425;-68
2023/08/28 07:20:17;;;;;;;1.40;1.30;;;23.80;42.60;;;;;;5017139;28;20484;-69
2023/08/28 07:22:43;;;;;;;1.43;1.33;;;23.80;43.30;;;;;;5020981;28;20218;-66
2023/08/28 07:25:09;;;;;;;1.40;1.30;;;23.80;42.60;;;;;;5020309;28;20222;-65
2023/08/28 07:27:34;;;;;;;1.60;1.50;;;23.80;42.60;;;;;;5017893;28;20691;-66
2023/08/28 07:30:03;;;;;;;1.60;1.50;;;23.80;42.60;;;;;;5019581;28;20329;-65
2023/08/28 07:32:31;;;;;;;1.70;1.60;;;23.80;42.60;;;;;;5021119;28;20249;-66
2023/08/28 07:34:59;;;;;;;1.43;1.33;;;23.80;42.60;;;;;;5019517;28;21354;-69
2023/08/28 07:37:28;;;;;;;1.40;1.30;;;23.80;42.60;;;;;;5017619;28;20495;-66
2023/08/28 07:39:53;;;;;;;1.40;1.20;;;23.80;42.60;;;;;;5017860;28;20460;-66
2023/08/28 07:42:20;;;;;;;1.30;1.20;;;23.80;42.60;;;;;;5018056;28;20487;-69
2023/08/28 07:44:45;;;;;;;1.50;1.40;;;23.80;42.60;;;;;;5020779;28;20225;-65
2023/08/28 07:47:12;;;;;;;1.40;1.30;;;23.80;42.60;;;;;;5017725;28;20474;-68
2023/08/28 07:49:38;;;;;;;1.43;1.33;;;23.80;42.60;;;;;;5017536;28;20222;-67
2023/08/28 07:52:04;;;;;;;2.17;1.60;;;23.80;42.60;;;;;;5018978;28;20449;-69
2023/08/28 07:54:30;;;;;;;1.40;1.30;;;23.80;42.60;;;;;;5017317;28;20234;-65
2023/08/28 07:56:55;;;;;;;1.30;1.20;;;23.80;42.60;;;;;;5016983;28;20960;-65
2023/08/28 07:59:21;;;;;;;1.60;1.50;;;23.80;42.60;;;;;;5018946;28;20318;-69
2023/08/28 08:01:46;;;;;;;1.67;1.57;;;23.80;42.60;;;;;;5017646;28;20219;-66
2023/08/28 08:04:12;;;;;;;1.43;1.33;;;23.80;42.60;;;;;;5021346;28;20219;-67
2023/08/28 08:06:38;;;;;;;1.50;1.40;;;23.80;42.60;;;;;;5019574;28;20230;-67
2023/08/28 08:09:04;;;;;;;1.60;1.50;;;23.80;42.60;;;;;;5017108;28;22477;-67
2023/08/28 08:11:30;;;;;;;1.40;1.30;;;23.80;42.60;;;;;;5019147;28;20467;-67
2023/08/28 08:13:55;;;;;;;1.50;1.40;;;23.80;42.60;;;;;;5018216;28;20305;-66
2023/08/28 08:16:21;;;;;;;1.40;1.30;;;23.80;42.60;;;;;;5014582;28;20234;-67
2023/08/28 08:18:46;;;;;;;2.67;1.53;;;23.80;42.70;;;;;;5016133;28;20607;-65
2023/08/28 08:21:12;;;;;;;1.20;1.10;;;23.80;42.60;;;;;;5016742;28;20234;-67
2023/08/28 08:23:37;;;;;;;1.43;1.33;;;23.80;42.70;;;;;;4990194;28;20218;-67
2023/08/28 08:26:03;;;;;;;1.33;1.23;;;23.80;42.70;;;;;;5027219;28;20358;-66
2023/08/28 08:28:30;;;;;;;1.50;1.40;;;23.80;42.70;;;;;;5022251;28;20950;-67
2023/08/28 08:30:55;;;;;;;1.73;1.30;;;23.80;42.70;;;;;;5029249;28;20835;-67
2023/08/28 08:33:21;;;;;;;1.23;1.13;;;23.80;42.80;;;;;;5021592;28;20459;-72
2023/08/28 08:43:11;;;;;;;1.47;1.37;;;23.80;42.80;;;;;;4997343;28;20479;-66
2023/08/28 08:45:37;;;;;;;1.67;1.53;;;23.80;43.00;;;;;;5015961;28;20472;-67
2023/08/28 08:48:08;;;;;;;1.63;1.53;;;23.80;43.00;;;;;;5015457;28;20226;-66
2023/08/28 08:50:36;;;;;;;1.43;1.33;;;23.80;43.00;;;;;;5014599;28;20471;-68
2023/08/28 08:53:09;;;;;;;1.50;1.40;;;23.80;43.00;;;;;;5017559;28;20463;-67
2023/08/28 08:55:41;;;;;;;1.40;1.30;;;23.80;43.10;;;;;;5018584;28;21204;-67
2023/08/28 08:58:10;;;;;;;1.50;1.40;;;23.80;43.00;;;;;;5014654;28;20999;-68
2023/08/28 09:00:38;;;;;;;1.53;1.43;;;23.80;43.00;;;;;;5016277;28;21416;-65
2023/08/28 09:03:08;;;;;;;1.50;1.40;;;23.80;43.10;;;;;;5015277;28;20463;-68
2023/08/28 09:05:35;;;;;;;1.30;1.20;;;23.80;43.10;;;;;;5016452;28;20549;-67
2023/08/28 09:08:03;;;;;;;1.33;1.23;;;23.80;43.10;;;;;;5018487;28;21115;-66
2023/08/28 09:10:29;;;;;;;1.77;1.40;;;23.80;43.10;;;;;;5015458;28;20496;-69
2023/08/28 09:12:55;;;;;;;1.30;1.20;;;23.80;43.20;;;;;;5013924;28;22810;-67
2023/08/28 09:15:21;;;;;;;1.20;1.10;;;23.80;43.10;;;;;;5014459;28;20237;-67
2023/08/28 09:17:46;;;;;;;1.20;1.10;;;23.80;43.20;;;;;;5017926;28;20955;-67
2023/08/28 09:20:16;;;;;;;1.37;1.27;;;23.80;43.20;;;;;;5016520;28;20218;-68
2023/08/28 09:23:00;;;;;;;1.30;1.20;;;23.80;43.20;;;;;;5013285;28;20230;-66
2023/08/28 09:25:26;;;;;;;1.10;1.00;;;23.80;43.20;;;;;;5018549;28;20464;-68
2023/08/28 09:27:53;;;;;;;1.23;1.13;;;23.80;43.20;;;;;;5017507;28;21264;-65
2023/08/28 09:30:37;;;;;;;1.17;1.10;;;23.80;43.20;;;;;;5017657;28;20456;-67
2023/08/28 09:33:06;;;;;;;1.50;1.40;;;23.80;43.30;;;;;;5018922;28;20538;-66
2023/08/28 09:35:37;;;;;;;1.27;1.17;;;23.80;43.20;;;;;;5014485;28;20572;-65
2023/08/28 09:38:03;;;;;;;1.20;1.10;;;23.80;43.20;;;;;;5016102;28;20467;-67
2023/08/28 09:40:30;;;;;;;1.20;1.10;;;23.80;43.20;;;;;;5014774;28;20464;-66
2023/08/28 09:42:59;;;;;;;1.30;1.20;;;23.80;43.20;;;;;;5013561;28;20238;-66
2023/08/28 09:45:32;;;;;;;1.30;1.20;;;23.80;43.20;;;;;;5017517;28;21040;-66
2023/08/28 09:47:58;;;;;;;1.77;1.07;;;23.80;43.20;;;;;;5015700;28;20458;-69
2023/08/28 09:50:27;;;;;;;1.20;1.10;;;23.80;43.20;;;;;;5015318;28;20798;-66
2023/08/28 09:52:52;;;;;;;1.10;1.00;;;23.80;43.30;;;;;;5014886;28;20226;-69
2023/08/28 09:55:18;;;;;;;1.60;1.50;;;23.80;43.30;;;;;;5014103;28;20526;-68
2023/08/28 09:57:44;;;;;;;1.53;1.10;;;23.80;43.20;;;;;;5016260;28;20244;-67
2023/08/28 10:00:13;;;;;;;1.10;1.00;;;23.80;43.30;;;;;;5018215;28;20330;-67
2023/08/28 10:02:39;;;;;;;1.20;1.10;;;23.80;43.30;;;;;;5016323;28;20229;-66
2023/08/28 10:05:08;;;;;;;0.90;0.90;;;23.80;43.20;;;;;;5014855;28;20464;-68
2023/08/28 10:07:35;;;;;;;2.30;1.20;;;23.80;43.30;;;;;;5016873;28;20295;-66
2023/08/28 10:10:03;;;;;;;1.10;1.00;;;23.80;43.30;;;;;;5016490;28;20455;-68
2023/08/28 10:12:29;;;;;;;1.10;1.10;;;23.80;43.30;;;;;;5018311;28;20487;-68
2023/08/28 10:14:56;;;;;;;1.30;1.20;;;23.80;43.30;;;;;;5021943;28;20466;-66
2023/08/28 10:17:25;;;;;;;1.30;1.20;;;23.80;43.30;;;;;;5016961;28;20991;-68
2023/08/28 10:19:57;;;;;;;1.13;1.00;;;23.80;43.30;;;;;;5018262;28;20452;-68
2023/08/28 10:22:24;;;;;;;1.17;1.07;;;23.80;43.30;;;;;;5023832;28;20823;-67
2023/08/28 10:24:51;;;;;;;1.10;1.00;;;23.80;43.30;;;;;;5018793;28;20579;-68
2023/08/28 10:27:18;;;;;;;1.30;1.20;;;23.80;43.30;;;;;;5019177;28;20450;-66
2023/08/28 10:29:46;;;;;;;1.03;1.03;;;23.80;43.30;;;;;;5018192;28;20467;-66
2023/08/28 10:32:14;;;;;;;1.33;1.23;;;23.80;43.30;;;;;;5017055;28;20466;-65
2023/08/28 10:34:40;;;;;;;1.20;1.10;;;23.80;43.30;;;;;;5017371;28;20448;-66
2023/08/28 10:37:09;;;;;;;1.30;1.00;;;23.80;43.30;;;;;;5017386;28;20521;-67
2023/08/28 10:39:41;;;;;;;0.93;0.90;;;23.80;43.30;;;;;;5016279;28;22391;-66
2023/08/28 10:42:15;;;;;;;1.00;1.00;;;23.80;43.30;;;;;;5019563;28;21091;-67
2023/08/28 10:44:42;;;;;;;1.13;1.03;;;23.80;43.40;;;;;;5017081;28;20497;-66
2023/08/28 10:47:08;;;;;;;0.97;0.97;;;23.80;43.30;;;;;;5017942;28;20486;-68
2023/08/28 10:49:34;;;;;;;1.20;1.10;;;23.80;43.20;;;;;;5019917;28;20864;-66
2023/08/28 10:52:02;;;;;;;1.20;1.10;;;23.80;43.30;;;;;;5018833;28;20435;-65
2023/08/28 10:54:39;;;;;;;1.20;1.10;;;23.80;43.20;;;;;;5018748;28;20244;-66
2023/08/28 10:57:10;;;;;;;1.20;1.10;;;23.80;43.20;;;;;;5018947;28;20480;-66
2023/08/28 10:59:45;;;;;;;1.20;1.10;;;23.80;43.20;;;;;;5018235;28;20453;-66
2023/08/28 11:02:11;;;;;;;1.00;1.00;;;23.80;43.20;;;;;;5015769;28;20897;-65
2023/08/28 11:04:39;;;;;;;1.30;1.20;;;23.80;43.20;;;;;;5020887;28;20452;-65
2023/08/28 11:07:23;;;;;;;1.20;1.03;;;23.80;43.20;;;;;;5020534;28;20467;-65
2023/08/28 11:09:49;;;;;;;1.10;1.00;;;23.80;43.10;;;;;;5016132;28;20474;-68
2023/08/28 11:12:18;;;;;;;1.20;1.10;;;23.80;43.20;;;;;;5024050;28;20464;-66
2023/08/28 11:14:52;;;;;;;1.23;1.13;;;23.80;43.10;;;;;;5019279;28;20951;-66
2023/08/28 11:17:20;;;;;;;1.00;1.00;;;23.80;43.10;;;;;;5019428;28;20479;-67
2023/08/28 11:19:55;;;;;;;1.10;1.00;;;23.80;43.00;;;;;;5034592;28;20471;-68
2023/08/28 11:22:45;;;;;;;1.00;1.00;;;23.80;43.00;;;;;;5018725;28;20467;-68
2023/08/28 11:25:30;;;;;;;1.10;1.00;;;23.80;43.00;;;;;;5013740;28;20459;-67
2023/08/28 11:27:59;;;;;;;1.20;1.10;;;23.80;43.10;;;;;;5014369;28;20459;-66
2023/08/28 11:30:25;;;;;;;1.47;1.37;;;23.80;43.10;;;;;;5019327;28;20468;-66
2023/08/28 11:32:53;;;;;;;1.20;1.10;;;23.80;43.20;;;;;;5018075;28;20468;-67
2023/08/28 11:35:20;;;;;;;1.13;1.07;;;23.80;43.20;;;;;;5018210;28;20904;-66
2023/08/28 11:37:53;;;;;;;1.37;1.27;;;23.80;43.20;;;;;;5021205;28;20478;-67
2023/08/28 11:40:20;;;;;;;1.20;1.10;;;23.80;43.10;;;;;;5014934;28;21199;-68
2023/08/28 11:42:48;;;;;;;1.00;1.00;;;23.80;43.20;;;;;;5019175;28;20567;-65
2023/08/28 11:45:19;;;;;;;1.27;1.17;;;23.80;43.10;;;;;;5020986;28;20464;-66
2023/08/28 11:47:45;;;;;;;1.20;1.20;;;23.80;43.90;;;;;;5019122;28;20467;-66
2023/08/28 11:50:10;;;;;;;1.27;1.20;;;23.80;43.10;;;;;;5016827;28;20477;-68
2023/08/28 11:52:36;;;;;;;1.00;1.00;;;23.80;43.20;;;;;;5016793;28;20226;-66
2023/08/28 11:55:04;;;;;;;1.30;1.20;;;23.80;43.10;;;;;;5018334;28;20271;-67
2023/08/28 11:57:31;;;;;;;1.30;1.20;;;23.80;43.10;;;;;;5015652;28;20276;-66
2023/08/28 11:59:58;;;;;;;2.00;1.20;;;23.80;43.10;;;;;;5017048;28;20801;-68
2023/08/28 12:02:25;;;;;;;1.30;1.20;;;23.80;43.10;;;;;;5018916;28;20509;-66
2023/08/28 12:04:50;;;;;;;1.10;1.00;;;23.80;43.10;;;;;;5018752;28;20455;-68
2023/08/28 12:07:22;;;;;;;0.90;0.90;;;23.80;43.10;;;;;;5017241;28;20466;-65
2023/08/28 12:09:49;;;;;;;1.00;1.00;;;23.80;43.10;;;;;;5021918;28;20640;-69
2023/08/28 12:12:16;;;;;;;0.97;0.97;;;23.80;43.20;;;;;;5017330;28;20550;-65
2023/08/28 12:14:43;;;;;;;1.20;1.10;;;23.80;43.20;;;;;;5016230;28;20472;-66
2023/08/28 12:17:23;;;;;;;1.30;1.20;;;23.80;43.10;;;;;;5016369;28;20610;-66
2023/08/28 12:19:51;;;;;;;1.23;1.13;;;23.80;43.10;;;;;;5017701;28;20466;-66
2023/08/28 12:22:20;;;;;;;1.40;1.30;;;23.80;43.20;;;;;;5018308;28;20578;-68
2023/08/28 12:24:48;;;;;;;1.27;1.17;;;23.80;43.20;;;;;;5017858;28;20455;-68
2023/08/28 12:27:15;;;;;;;1.30;1.20;;;23.80;43.10;;;;;;5016956;28;20574;-66
2023/08/28 12:29:41;;;;;;;1.27;1.17;;;23.80;43.10;;;;;;5017169;28;21502;-66
2023/08/28 12:32:18;;;;;;;1.03;1.00;;;23.80;43.20;;;;;;5017119;28;20464;-68
2023/08/28 12:34:47;;;;;;;1.00;1.00;;;23.80;43.10;;;;;;5018498;28;20554;-68
2023/08/28 12:37:14;;;;;;;1.30;1.20;;;23.80;43.10;;;;;;5010779;28;21052;-67
2023/08/28 12:39:51;;;;;;;1.20;1.10;;;23.80;43.10;;;;;;5016108;28;20885;-66
2023/08/28 12:42:18;;;;;;;1.20;1.10;;;23.80;43.10;;;;;;5017980;28;20533;-66
2023/08/28 12:44:43;;;;;;;1.20;1.10;;;23.80;43.10;;;;;;5017344;28;20469;-66
2023/08/28 12:47:14;;;;;;;1.40;1.30;;;23.80;43.10;;;;;;5017638;28;20444;-66
2023/08/28 12:49:40;;;;;;;1.27;1.17;;;23.80;43.20;;;;;;5023011;28;20685;-66
2023/08/28 12:52:07;;;;;;;1.17;1.17;;;23.80;43.20;;;;;;5016704;28;20513;-67
2023/08/28 12:54:33;;;;;;;1.40;1.30;;;23.80;43.20;;;;;;5019673;28;20906;-66